Olympic Champion — SYWD — position and weather

sailwx.info

Track history (hours):
 
Tides and Currents Weather Stations Pressure Air Temp Water Temp Dewpoint Dewpoint Depression Visibility Wind Speed Wind Dir Waves Ship Positions

Olympic Champion

Last reported at 2018-May-26 15:36 UTC. Time now 2018-May-28 07:41 UTC.
Position N 44°06' E 013°22'.

Length 204 m; draft 6.4 m.

Type: Ship. MMSI: 237280000.

Date/timePositionNaut miles runAvg speedWind from/ knotsBaromVisibWave heightAir tempDewpointWater temp
2018-May-26 15:36N 44°06' E 013°22'222.8
2018-May-26 15:30N 44°07' E 013°20'1122.1
2018-May-26 15:00N 44°16' E 013°11'1423.4
2018-May-26 14:24N 44°30' E 013°05'923.2
2018-May-26 14:00N 44°38' E 013°00'1122.9
2018-May-26 13:30N 44°49' E 012°54'1122.1
2018-May-26 13:00N 44°59' E 012°47'1121.4
2018-May-26 12:30N 45°08' E 012°39'1121.2
2018-May-26 12:00N 45°16' E 012°28'815.6
2018-May-26 11:30N 45°20' E 012°19'4 7.8
2018-May-26 11:00N 45°23' E 012°16'2 4.9
2018-May-26 10:31N 45°25' E 012°15'0 0.0
2018-May-26 10:00N 45°25' E 012°15'0 0.0
2018-May-26 09:30N 45°25' E 012°15'0 0.0
2018-May-26 09:00N 45°25' E 012°15'0 0.0
2018-May-26 08:30N 45°25' E 012°15'0 0.0
2018-May-26 08:00N 45°25' E 012°15'0 0.0
2018-May-26 07:30N 45°25' E 012°15'0 0.0
2018-May-26 07:00N 45°25' E 012°15'0 0.0
2018-May-26 06:30N 45°25' E 012°15'0 0.0
2018-May-26 05:30N 45°25' E 012°15'1 1.4
2018-May-26 05:00N 45°25' E 012°16'4 8.2
2018-May-26 04:30N 45°21' E 012°17'4 8.8
2018-May-26 04:00N 45°20' E 012°23'815.9
2018-May-26 03:30N 45°16' E 012°33'918.6
2018-May-26 03:00N 45°11' E 012°44'1020.3
2018-May-26 02:30N 45°07' E 012°57'1020.6
2018-May-26 02:00N 45°01' E 013°09'1121.4
2018-May-26 01:30N 44°55' E 013°22'1122.5
2018-May-26 01:01N 44°46' E 013°31'1122.5
2018-May-26 00:30N 44°37' E 013°39'1122.2
2018-May-26 00:00N 44°27' E 013°48'1422.0
2018-May-25 23:22N 44°16' E 013°59'  
2018-May-23 14:37N 44°15' E 013°12'523.1
2018-May-23 14:23N 44°20' E 013°10'922.9
2018-May-23 14:00N 44°28' E 013°05'1222.8
2018-May-23 13:30N 44°39' E 012°60'1122.7
2018-May-23 13:01N 44°49' E 012°54'1122.6
2018-May-23 12:31N 44°59' E 012°46'1122.2
2018-May-23 12:01N 45°08' E 012°37'1121.6
2018-May-23 11:30N 45°17' E 012°27'713.9
2018-May-23 11:00N 45°20' E 012°19'4 7.7
2018-May-23 10:30N 45°23' E 012°16'2 4.0
2018-May-23 10:00N 45°25' E 012°15'0 0.0
2018-May-23 09:30N 45°25' E 012°15'0 0.0
2018-May-23 09:00N 45°25' E 012°15'0 0.0
2018-May-23 08:30N 45°25' E 012°15'0 0.0
2018-May-23 08:00N 45°25' E 012°15'0 0.0
2018-May-23 07:30N 45°25' E 012°15'0 0.0
2018-May-23 07:00N 45°25' E 012°15'0 0.0
2018-May-23 06:30N 45°25' E 012°15'0 0.0
2018-May-23 06:00N 45°25' E 012°15'0 0.0
2018-May-23 05:30N 45°25' E 012°15'2 4.3
2018-May-23 05:00N 45°23' E 012°16'4 7.4
2018-May-23 04:30N 45°20' E 012°19'4 8.5
2018-May-23 04:01N 45°19' E 012°24'815.2
2018-May-23 03:30N 45°16' E 012°34'919.0
2018-May-23 03:00N 45°10' E 012°45'918.5
2018-May-23 02:30N 45°06' E 012°56'918.6
2018-May-23 02:00N 45°01' E 013°08'1019.3
2018-May-23 01:30N 44°57' E 013°20'1020.4
2018-May-23 01:00N 44°48' E 013°29'1020.9
2018-May-23 00:30N 44°40' E 013°37'1020.8
2018-May-23 00:00N 44°31' E 013°45'1120.9
2018-May-22 23:30N 44°22' E 013°53'  
2018-May-20 14:41N 44°13' E 013°14'422.6
2018-May-20 14:30N 44°17' E 013°11'2322.4
2018-May-20 13:28N 44°38' E 012°60'1022.6
2018-May-20 13:01N 44°48' E 012°55'1122.7
2018-May-20 12:30N 44°58' E 012°47'1122.2
2018-May-20 12:00N 45°08' E 012°39'1121.4
2018-May-20 11:30N 45°16' E 012°29'815.8
2018-May-20 11:00N 45°20' E 012°20'4 7.9
2018-May-20 10:30N 45°23' E 012°16'2 5.1
2018-May-20 10:00N 45°25' E 012°15'0 0.0
2018-May-20 09:30N 45°25' E 012°15'0 0.0
2018-May-20 09:00N 45°25' E 012°15'0 0.0
2018-May-20 08:30N 45°25' E 012°15'0 0.0
2018-May-20 08:00N 45°25' E 012°15'0 0.0
2018-May-20 07:30N 45°25' E 012°15'0 0.0
2018-May-20 07:00N 45°25' E 012°15'0 0.0
2018-May-20 06:30N 45°25' E 012°15'0 0.0
2018-May-20 06:00N 45°25' E 012°15'0 0.0
2018-May-20 05:30N 45°25' E 012°15'0 0.5
2018-May-20 05:00N 45°25' E 012°16'4 8.8
2018-May-20 04:30N 45°21' E 012°16'5 9.7
2018-May-20 04:01N 45°20' E 012°22'917.3
2018-May-20 03:31N 45°16' E 012°34'1018.7
2018-May-20 03:00N 45°11' E 012°45'919.0
2018-May-20 02:31N 45°07' E 012°57'918.9
2018-May-20 02:01N 45°01' E 013°08'1019.3
2018-May-20 01:31N 44°57' E 013°20'1019.6
2018-May-20 01:00N 44°49' E 013°28'1020.9
2018-May-20 00:30N 44°40' E 013°36'1021.0
2018-May-20 00:01N 44°31' E 013°44'1121.2
2018-May-19 23:30N 44°22' E 013°53'1121.1
2018-May-19 22:59N 44°14' E 014°01'  
Track history (hours):
 
Tides and Currents Weather Stations Pressure Air Temp Water Temp Dewpoint Dewpoint Depression Visibility Wind Speed Wind Dir Waves Ship Positions

Olympic Champion

Last reported at 2018-May-26 15:36 UTC. Time now 2018-May-28 07:41 UTC.
Position N 44°06' E 013°22'.

Length 204 m; draft 6.4 m.

Type: Ship. MMSI: 237280000.

Date/timePositionNaut miles runAvg speedWind from/ knotsBaromVisibWave heightAir tempDewpointWater temp
2018-May-26 15:36N 44°06' E 013°22'222.8
2018-May-26 15:30N 44°07' E 013°20'1122.1
2018-May-26 15:00N 44°16' E 013°11'1423.4
2018-May-26 14:24N 44°30' E 013°05'923.2
2018-May-26 14:00N 44°38' E 013°00'1122.9
2018-May-26 13:30N 44°49' E 012°54'1122.1
2018-May-26 13:00N 44°59' E 012°47'1121.4
2018-May-26 12:30N 45°08' E 012°39'1121.2
2018-May-26 12:00N 45°16' E 012°28'815.6
2018-May-26 11:30N 45°20' E 012°19'4 7.8
2018-May-26 11:00N 45°23' E 012°16'2 4.9
2018-May-26 10:31N 45°25' E 012°15'0 0.0
2018-May-26 10:00N 45°25' E 012°15'0 0.0
2018-May-26 09:30N 45°25' E 012°15'0 0.0
2018-May-26 09:00N 45°25' E 012°15'0 0.0
2018-May-26 08:30N 45°25' E 012°15'0 0.0
2018-May-26 08:00N 45°25' E 012°15'0 0.0
2018-May-26 07:30N 45°25' E 012°15'0 0.0
2018-May-26 07:00N 45°25' E 012°15'0 0.0
2018-May-26 06:30N 45°25' E 012°15'0 0.0
2018-May-26 05:30N 45°25' E 012°15'1 1.4
2018-May-26 05:00N 45°25' E 012°16'4 8.2
2018-May-26 04:30N 45°21' E 012°17'4 8.8
2018-May-26 04:00N 45°20' E 012°23'815.9
2018-May-26 03:30N 45°16' E 012°33'918.6
2018-May-26 03:00N 45°11' E 012°44'1020.3
2018-May-26 02:30N 45°07' E 012°57'1020.6
2018-May-26 02:00N 45°01' E 013°09'1121.4
2018-May-26 01:30N 44°55' E 013°22'1122.5
2018-May-26 01:01N 44°46' E 013°31'1122.5
2018-May-26 00:30N 44°37' E 013°39'1122.2
2018-May-26 00:00N 44°27' E 013°48'1422.0
2018-May-25 23:22N 44°16' E 013°59'  
2018-May-23 14:37N 44°15' E 013°12'523.1
2018-May-23 14:23N 44°20' E 013°10'922.9
2018-May-23 14:00N 44°28' E 013°05'1222.8
2018-May-23 13:30N 44°39' E 012°60'1122.7
2018-May-23 13:01N 44°49' E 012°54'1122.6
2018-May-23 12:31N 44°59' E 012°46'1122.2
2018-May-23 12:01N 45°08' E 012°37'1121.6
2018-May-23 11:30N 45°17' E 012°27'713.9
2018-May-23 11:00N 45°20' E 012°19'4 7.7
2018-May-23 10:30N 45°23' E 012°16'2 4.0
2018-May-23 10:00N 45°25' E 012°15'0 0.0
2018-May-23 09:30N 45°25' E 012°15'0 0.0
2018-May-23 09:00N 45°25' E 012°15'0 0.0
2018-May-23 08:30N 45°25' E 012°15'0 0.0
2018-May-23 08:00N 45°25' E 012°15'0 0.0
2018-May-23 07:30N 45°25' E 012°15'0 0.0
2018-May-23 07:00N 45°25' E 012°15'0 0.0
2018-May-23 06:30N 45°25' E 012°15'0 0.0
2018-May-23 06:00N 45°25' E 012°15'0 0.0
2018-May-23 05:30N 45°25' E 012°15'2 4.3
2018-May-23 05:00N 45°23' E 012°16'4 7.4
2018-May-23 04:30N 45°20' E 012°19'4 8.5
2018-May-23 04:01N 45°19' E 012°24'815.2
2018-May-23 03:30N 45°16' E 012°34'919.0
2018-May-23 03:00N 45°10' E 012°45'918.5
2018-May-23 02:30N 45°06' E 012°56'918.6
2018-May-23 02:00N 45°01' E 013°08'1019.3
2018-May-23 01:30N 44°57' E 013°20'1020.4
2018-May-23 01:00N 44°48' E 013°29'1020.9
2018-May-23 00:30N 44°40' E 013°37'1020.8
2018-May-23 00:00N 44°31' E 013°45'1120.9
2018-May-22 23:30N 44°22' E 013°53'  
2018-May-20 14:41N 44°13' E 013°14'422.6
2018-May-20 14:30N 44°17' E 013°11'2322.4
2018-May-20 13:28N 44°38' E 012°60'1022.6
2018-May-20 13:01N 44°48' E 012°55'1122.7
2018-May-20 12:30N 44°58' E 012°47'1122.2
2018-May-20 12:00N 45°08' E 012°39'1121.4
2018-May-20 11:30N 45°16' E 012°29'815.8
2018-May-20 11:00N 45°20' E 012°20'4 7.9
2018-May-20 10:30N 45°23' E 012°16'2 5.1
2018-May-20 10:00N 45°25' E 012°15'0 0.0
2018-May-20 09:30N 45°25' E 012°15'0 0.0
2018-May-20 09:00N 45°25' E 012°15'0 0.0
2018-May-20 08:30N 45°25' E 012°15'0 0.0
2018-May-20 08:00N 45°25' E 012°15'0 0.0
2018-May-20 07:30N 45°25' E 012°15'0 0.0
2018-May-20 07:00N 45°25' E 012°15'0 0.0
2018-May-20 06:30N 45°25' E 012°15'0 0.0
2018-May-20 06:00N 45°25' E 012°15'0 0.0
2018-May-20 05:30N 45°25' E 012°15'0 0.5
2018-May-20 05:00N 45°25' E 012°16'4 8.8
2018-May-20 04:30N 45°21' E 012°16'5 9.7
2018-May-20 04:01N 45°20' E 012°22'917.3
2018-May-20 03:31N 45°16' E 012°34'1018.7
2018-May-20 03:00N 45°11' E 012°45'919.0
2018-May-20 02:31N 45°07' E 012°57'918.9
2018-May-20 02:01N 45°01' E 013°08'1019.3
2018-May-20 01:31N 44°57' E 013°20'1019.6
2018-May-20 01:00N 44°49' E 013°28'1020.9
2018-May-20 00:30N 44°40' E 013°36'1021.0
2018-May-20 00:01N 44°31' E 013°44'1121.2
2018-May-19 23:30N 44°22' E 013°53'1121.1
2018-May-19 22:59N 44°14' E 014°01'  

Dump ship's entire track history